Flight Track Log - Related Links

Times and Time Zones

All times are in EST time to prevent confusion due to time zone crossing. See the UAL4108 flight status page for this flight to view local times or setup timezone preferences in your user account.

Time Position Orientation Groundspeed Altitude Reporting Facility
EST Latitude Longitude Course Direction KTS MPH feet Rate Location/Type
Mon 06:05:55 PM 35.9008 -78.7794 27° Northeast 156 180 1,400  Level Washington Center
Mon 06:06:34 PM 35.9200 -78.7672 27° Northeast 165 190 2,600 2,040 Climbing Washington Center
Mon 06:07:35 PM 35.9811 -78.7364 22° Northeast 230 265 4,800 2,087 Climbing Washington Center
Mon 06:09:15 PM 36.1014 -78.6950 16° North 297 342 8,200 2,012 Climbing Washington Center
Mon 06:10:16 PM 36.1833 -78.6672 15° North 302 348 10,200 1,587 Climbing Washington Center
Mon 06:11:16 PM 36.2844 -78.6350 14° North 324 373 11,400 1,091 Climbing Washington Center
Mon 06:12:17 PM 36.3769 -78.6053 15° North 357 411 12,400 1,190 Climbing Washington Center
Mon 06:13:17 PM 36.4800 -78.5731 14° North 367 422 13,800 1,475 Climbing Washington Center
Mon 06:14:15 PM 36.5831 -78.5331 17° North 377 434 15,300 1,361 Climbing Washington Center
Mon 06:15:16 PM 36.6883 -78.4956 16° North 382 440 16,500 1,240 Climbing Washington Center
Mon 06:16:16 PM 36.7894 -78.4578 17° North 382 440 17,800 1,388 Climbing Washington Center
Mon 06:17:17 PM 36.8944 -78.4228 15° North 382 440 19,300 1,785 Climbing Washington Center
Mon 06:18:17 PM 37.0039 -78.3825 16° North 377 434 21,400 2,017 Climbing Washington Center
Mon 06:19:16 PM 37.0989 -78.3417 19° North 372 428 23,300 1,300 Climbing Washington Center
Mon 06:20:17 PM 37.1736 -78.2583 42° Northeast 367 422 24,000 756 Climbing Washington Center
Mon 06:21:15 PM 37.2572 -78.1594 43° Northeast 387 445 24,800 915 Climbing Washington Center
Mon 06:22:15 PM 37.3428 -78.0578 43° Northeast 400 460 25,800 992 Climbing Washington Center
Mon 06:23:16 PM 37.4283 -77.9508 45° Northeast 417 480 26,800 590 Climbing Washington Center
Mon 06:24:17 PM 37.5161 -77.8436 44° Northeast 423 487 27,000 100 Climbing Washington Center
Mon 06:25:16 PM 37.6158 -77.7494 37° Northeast 433 498 27,000  Level Washington Center
Mon 06:26:16 PM 37.7197 -77.6553 36° Northeast 449 517 27,000  Level Washington Center
Mon 06:27:17 PM 37.8256 -77.5583 36° Northeast 461 531 27,000  Level Washington Center
Mon 06:28:17 PM 37.9333 -77.4611 35° Northeast 461 531 27,000  Level Washington Center
Mon 06:29:16 PM 38.0475 -77.3583 35° Northeast 461 531 27,000  Level Washington Center
Mon 06:30:15 PM 38.1553 -77.2581 36° Northeast 461 531 27,000  Level Washington Center
Mon 06:31:16 PM 38.2506 -77.1675 37° Northeast 467 537 27,000  Level Washington Center
Mon 06:32:17 PM 38.3664 -77.0642 35° Northeast 467 537 27,000  Level Washington Center
Mon 06:33:17 PM 38.4697 -76.9681 36° Northeast 457 526 27,000  Level Washington Center
Mon 06:34:15 PM 38.5731 -76.8717 36° Northeast 457 526 27,000  Level Washington Center
Mon 06:35:16 PM 38.6783 -76.7697 37° Northeast 457 526 27,000  Level Washington Center
Mon 06:36:16 PM 38.7753 -76.6647 40° Northeast 457 526 27,000  Level Washington Center
Mon 06:37:17 PM 38.8719 -76.5542 42° Northeast 462 532 27,000  Level Washington Center
Mon 06:38:18 PM 38.9667 -76.4433 42° Northeast 462 532 27,000  Level Washington Center
Mon 06:39:16 PM 39.0611 -76.3347 42° Northeast 457 526 27,000  Level Washington Center
Mon 06:40:16 PM 39.1556 -76.2233 42° Northeast 457 526 27,000  Level Washington Center
Mon 06:41:17 PM 39.2519 -76.1142 41° Northeast 457 526 27,000  Level Washington Center
Mon 06:42:15 PM 39.3461 -76.0022 43° Northeast 457 526 27,000  Level Washington Center
Mon 06:43:15 PM 39.4381 -75.8953 42° Northeast 451 519 27,000 -149 Level Washington Center
Mon 06:44:16 PM 39.5322 -75.7825 43° Northeast 451 519 26,700 -1,438 Descending Washington Center
Mon 06:45:16 PM 39.6261 -75.6697 43° Northeast 451 519 24,100 -2,430 Descending Washington Center
Mon 06:46:17 PM 39.7197 -75.5592 42° Northeast 451 519 21,800 -2,370 Descending Washington Center
Mon 06:47:15 PM 39.8072 -75.4511 43° Northeast 439 505 19,400 -2,390 Descending Washington Center
Mon 06:48:15 PM 39.8967 -75.3453 42° Northeast 434 499 17,100 -2,231 Descending Washington Center
Mon 06:49:16 PM 39.9797 -75.2478 42° Northeast 417 480 14,900 -2,132 Descending Washington Center
Mon 06:50:16 PM 40.0586 -75.1497 44° Northeast 404 465 12,800 -2,033 Descending Washington Center
Mon 06:51:17 PM 40.1331 -75.0569 44° Northeast 387 445 10,800 -1,400 Descending Washington Center
Mon 06:52:16 PM 40.1972 -74.9778 43° Northeast 357 411 10,000 -1,132 Descending Washington Center
Mon 06:53:03 PM 40.2500 -74.9167 41° Northeast 287 330 8,800 -1,111 Descending New York TRACON
Mon 06:54:04 PM 40.3000 -74.8500 45° Northeast 276 318 8,000 -400 Descending New York TRACON
Mon 06:55:03 PM 40.3500 -74.7667 52° Northeast 275 316 8,000 -50 Level New York TRACON
Mon 06:56:03 PM 40.4000 -74.7000 45° Northeast 277 319 7,900 -496 Descending New York TRACON
Mon 06:57:04 PM 40.3667 -74.6000 114° Southeast 274 315 7,000 -850 Descending New York TRACON
Mon 06:58:03 PM 40.3333 -74.5167 118° Southeast 243 280 6,200 -756 Descending New York TRACON
Mon 06:59:03 PM 40.3333 -74.4500 90° East 226 260 5,500 -850 Descending New York TRACON
Mon 07:00:03 PM 40.3667 -74.3833 57° Northeast 221 254 4,500 -900 Descending New York TRACON
Mon 07:01:03 PM 40.4167 -74.3333 37° Northeast 209 241 3,700 -750 Descending New York TRACON
Mon 07:02:03 PM 40.4667 -74.3167 14° North 191 220 3,000 -350 Descending New York TRACON
Mon 07:03:03 PM 40.5000 -74.2833 37° Northeast 167 192 3,000  Level New York TRACON
Mon 07:04:03 PM 40.5500 -74.2500 27° Northeast 169 194 3,000 -400 Level New York TRACON
Mon 07:05:03 PM 40.5833 -74.2333 21° North 169 194 2,200 -843 Descending New York TRACON
Mon 07:06:04 PM 40.6333 -74.2000 27° Northeast 146 168 1,300 -843 Descending New York TRACON
Mon 07:07:04 PM 40.6667 -74.1833 21° North 133 153 500 -800 Descending New York TRACON
Mon 07:09:00 PM 40.6833 -74.1667 23° Northeast  Level FlightAware Approximate

Login

Don't have an account? Register now (free) for customized features, flight alerts, and more!